createdAt,value
2023-01-27T00:05:36.076Z,1.30
2023-01-27T00:11:56.447Z,1.30
2023-01-27T00:17:58.301Z,1.30
2023-01-27T00:24:18.640Z,1.30
2023-01-27T00:30:20.947Z,1.40
2023-01-27T00:36:23.247Z,1.40
2023-01-27T00:42:25.215Z,1.50
2023-01-27T00:48:27.273Z,1.50
2023-01-27T00:54:31.388Z,1.50
2023-01-27T01:00:41.922Z,1.50
2023-01-27T01:06:43.644Z,1.40
2023-01-27T01:12:45.430Z,1.50
2023-01-27T01:18:47.268Z,1.50
2023-01-27T01:24:49.091Z,1.50
2023-01-27T01:30:50.966Z,1.50
2023-01-27T01:36:52.795Z,1.40
2023-01-27T01:43:07.001Z,1.40
2023-01-27T01:49:08.772Z,1.40
2023-01-27T01:55:10.810Z,1.50
2023-01-27T02:01:15.680Z,1.50
2023-01-27T02:07:22.390Z,1.50
2023-01-27T02:13:26.766Z,1.60
2023-01-27T02:19:42.015Z,1.50
2023-01-27T02:26:08.216Z,1.60
2023-01-27T02:32:25.821Z,1.60
2023-01-27T02:38:35.021Z,1.60
2023-01-27T02:44:37.165Z,1.60
2023-01-27T02:50:39.567Z,1.40
2023-01-27T02:56:42.529Z,1.40
2023-01-27T03:02:46.923Z,1.20
2023-01-27T03:08:48.898Z,1.20
2023-01-27T03:15:10.876Z,1.30
2023-01-27T03:21:13.568Z,1.40
2023-01-27T03:27:16.647Z,1.40
2023-01-27T03:33:43.049Z,1.50
2023-01-27T03:40:30.164Z,1.50
2023-01-27T03:46:32.827Z,1.60
2023-01-27T03:52:34.547Z,1.70
2023-01-27T03:58:37.337Z,1.70
2023-01-27T04:04:57.753Z,1.70
2023-01-27T04:11:23.038Z,1.70
2023-01-27T04:17:24.756Z,1.80
2023-01-27T04:23:26.509Z,1.70
2023-01-27T04:29:31.135Z,1.70
2023-01-27T04:35:38.556Z,1.60
2023-01-27T04:41:40.784Z,1.60
2023-01-27T04:47:42.509Z,1.50
2023-01-27T04:53:44.219Z,1.50
2023-01-27T04:59:45.953Z,1.30
2023-01-27T05:05:48.119Z,1.20
2023-01-27T05:11:49.908Z,1.10
2023-01-27T05:17:51.757Z,1.10
2023-01-27T05:23:53.720Z,1.30
2023-01-27T05:29:55.481Z,1.30
2023-01-27T05:36:02.164Z,1.40
2023-01-27T05:42:04.058Z,1.50
2023-01-27T05:48:06.026Z,1.50
2023-01-27T05:54:08.936Z,1.60
2023-01-27T06:00:11.334Z,1.50
2023-01-27T06:06:14.995Z,1.50
2023-01-27T06:12:16.729Z,1.50
2023-01-27T06:18:19.479Z,1.50
2023-01-27T06:24:21.560Z,1.60
2023-01-27T06:30:24.625Z,1.70
2023-01-27T06:36:26.326Z,1.70
2023-01-27T06:42:28.106Z,1.70
2023-01-27T06:48:29.954Z,1.70
2023-01-27T06:54:31.653Z,1.60
2023-01-27T07:00:33.533Z,1.50
2023-01-27T07:06:35.266Z,1.40
2023-01-27T07:12:38.007Z,1.30
2023-01-27T07:18:39.738Z,1.50
2023-01-27T07:24:41.564Z,1.50
2023-01-27T07:30:44.144Z,1.60
2023-01-27T07:36:46.007Z,1.60
2023-01-27T07:42:47.771Z,1.70
2023-01-27T07:48:50.305Z,1.70
2023-01-27T07:54:52.064Z,1.80
2023-01-27T08:00:53.934Z,1.80
2023-01-27T08:06:55.755Z,1.70
2023-01-27T08:12:57.502Z,1.70
2023-01-27T08:18:59.300Z,1.50
2023-01-27T08:25:01.211Z,1.40
2023-01-27T08:31:11.711Z,1.50
2023-01-27T08:37:13.623Z,1.50
2023-01-27T08:43:16.587Z,1.60
2023-01-27T08:49:18.285Z,1.70
2023-01-27T08:55:19.980Z,1.90
2023-01-27T09:01:21.752Z,2.00
2023-01-27T09:07:23.554Z,2.10
2023-01-27T09:13:25.673Z,2.20
2023-01-27T09:19:27.410Z,2.30
2023-01-27T09:25:29.255Z,2.50
2023-01-27T09:31:31.203Z,2.70
2023-01-27T09:37:44.066Z,2.90
2023-01-27T09:44:25.441Z,3.10
2023-01-27T09:50:44.761Z,3.30
2023-01-27T09:56:53.849Z,3.30
2023-01-27T10:03:09.238Z,3.70
2023-01-27T10:09:23.052Z,3.60
2023-01-27T10:15:52.727Z,3.40
2023-01-27T10:22:39.699Z,3.30
2023-01-27T10:28:49.093Z,3.50
2023-01-27T10:35:05.887Z,3.70
2023-01-27T10:41:45.179Z,3.90
2023-01-27T10:48:11.163Z,4.00
2023-01-27T10:54:25.087Z,4.30
2023-01-27T11:07:05.174Z,4.90
2023-01-27T11:13:10.001Z,4.90
2023-01-27T11:19:26.226Z,5.00
2023-01-27T11:25:42.261Z,5.10
2023-01-27T11:32:21.968Z,4.80
2023-01-27T11:38:24.140Z,4.70
2023-01-27T11:44:31.770Z,4.60
2023-01-27T11:50:35.964Z,4.50
2023-01-27T11:56:39.558Z,4.50
2023-01-27T12:02:59.397Z,4.50
2023-01-27T12:09:01.254Z,4.40
2023-01-27T12:15:05.320Z,4.50
2023-01-27T12:21:08.885Z,4.30
2023-01-27T12:27:21.889Z,4.40
2023-01-27T12:33:28.673Z,4.30
2023-01-27T12:39:43.797Z,4.20
2023-01-27T12:46:11.327Z,4.10
2023-01-27T12:52:21.224Z,4.00
2023-01-27T12:58:32.756Z,4.10
2023-01-27T13:04:37.301Z,3.90
2023-01-27T13:10:39.215Z,4.10
2023-01-27T13:16:40.960Z,4.10
2023-01-27T13:22:53.995Z,4.30
2023-01-27T13:29:14.428Z,4.30
2023-01-27T13:35:31.197Z,4.30
2023-01-27T13:41:49.966Z,4.10
2023-01-27T13:47:58.679Z,3.90
2023-01-27T13:54:05.251Z,3.90
2023-01-27T14:00:25.524Z,3.70
2023-01-27T14:06:58.492Z,3.80
2023-01-27T14:13:34.030Z,3.70
2023-01-27T14:19:38.590Z,3.60
2023-01-27T14:26:01.582Z,3.50
2023-01-27T14:32:12.411Z,3.30
2023-01-27T14:38:39.213Z,3.20
2023-01-27T14:45:05.193Z,3.00
2023-01-27T14:51:31.205Z,2.80
2023-01-27T14:58:20.996Z,2.80
2023-01-27T15:04:37.536Z,2.90
2023-01-27T15:10:50.875Z,2.80
2023-01-27T15:17:19.976Z,2.70
2023-01-27T15:23:24.681Z,2.70
2023-01-27T15:29:28.705Z,2.60
2023-01-27T15:35:38.668Z,2.50
2023-01-27T15:42:02.358Z,2.40
2023-01-27T15:48:11.433Z,2.40
2023-01-27T15:54:19.153Z,2.30
2023-01-27T16:00:47.081Z,2.30
2023-01-27T16:07:02.594Z,2.20
2023-01-27T16:13:25.796Z,2.20
2023-01-27T16:19:33.979Z,2.10
2023-01-27T16:26:17.596Z,2.00
2023-01-27T16:32:25.587Z,1.90
2023-01-27T16:38:31.394Z,1.80
2023-01-27T16:44:43.377Z,1.80
2023-01-27T16:50:45.177Z,1.80
2023-01-27T16:56:50.154Z,1.80
2023-01-27T17:02:53.499Z,1.80
2023-01-27T17:08:55.614Z,1.80
2023-01-27T17:14:59.084Z,1.90
2023-01-27T17:21:00.936Z,1.90
2023-01-27T17:27:24.845Z,1.90
2023-01-27T17:33:26.767Z,1.70
2023-01-27T17:39:28.683Z,1.80
2023-01-27T17:45:34.212Z,1.80
2023-01-27T17:51:39.908Z,1.80
2023-01-27T17:57:42.214Z,1.90
2023-01-27T18:03:44.778Z,1.80
2023-01-27T18:09:53.919Z,1.90
2023-01-27T18:16:01.200Z,1.90
2023-01-27T18:22:11.575Z,1.80
2023-01-27T18:28:13.435Z,1.90
2023-01-27T18:34:27.196Z,1.90
2023-01-27T18:40:32.040Z,1.90
2023-01-27T18:46:33.755Z,1.90
2023-01-27T18:52:35.585Z,1.90
2023-01-27T18:58:38.422Z,1.80
2023-01-27T19:04:40.194Z,1.90
2023-01-27T19:10:42.307Z,1.90
2023-01-27T19:16:46.383Z,1.80
2023-01-27T19:22:49.701Z,1.90
2023-01-27T19:28:57.172Z,1.90
2023-01-27T19:34:58.808Z,1.90
2023-01-27T19:41:00.507Z,1.90
2023-01-27T19:47:02.255Z,1.90
2023-01-27T19:53:03.997Z,1.80
2023-01-27T19:59:05.769Z,1.90
2023-01-27T20:05:08.034Z,1.80
2023-01-27T20:11:43.093Z,1.80
2023-01-27T20:17:44.933Z,1.80
2023-01-27T20:23:47.352Z,1.70
2023-01-27T20:29:49.145Z,1.60
2023-01-27T20:35:51.266Z,1.60
2023-01-27T20:41:53.041Z,1.60
2023-01-27T20:47:56.057Z,1.60
2023-01-27T20:54:00.113Z,1.60
2023-01-27T21:00:02.275Z,1.70
2023-01-27T21:06:05.268Z,1.70
2023-01-27T21:12:07.169Z,1.70
2023-01-27T21:18:08.893Z,1.60
2023-01-27T21:24:10.648Z,1.60
2023-01-27T21:30:13.115Z,1.70
2023-01-27T21:36:15.056Z,1.70
2023-01-27T21:42:17.073Z,1.70
2023-01-27T21:48:18.874Z,1.70
2023-01-27T21:54:20.841Z,1.70
2023-01-27T22:00:27.586Z,1.60
2023-01-27T22:06:29.478Z,1.70
2023-01-27T22:12:31.344Z,1.80
2023-01-27T22:18:36.182Z,1.80
2023-01-27T22:24:37.945Z,1.80
2023-01-27T22:30:39.741Z,1.70
2023-01-27T22:36:41.466Z,1.70
2023-01-27T22:42:43.257Z,1.50
2023-01-27T22:48:47.410Z,1.60
2023-01-27T22:54:49.171Z,1.50
2023-01-27T23:00:50.975Z,1.40
2023-01-27T23:06:52.732Z,1.50
2023-01-27T23:12:54.437Z,1.50
2023-01-27T23:18:56.211Z,1.50
2023-01-27T23:24:57.928Z,1.50
2023-01-27T23:30:59.941Z,1.40
2023-01-27T23:37:01.813Z,1.50
2023-01-27T23:43:05.290Z,1.50
2023-01-27T23:49:09.929Z,1.40
2023-01-27T23:55:13.056Z,1.40
